Terminal Aerodrome Forecast
Issued by NWS Cleveland, OH

Home | Current Version | Previous Version | Graphics & Text | Print | Product List | Glossary On
Versions: 1 2 3 4 5 6 7 8 9 10 11 12 13 14 15
000
FTUS41 KCLE 181438 AAA
TAFYNG
TAF AMD
KYNG 181438Z 1815/1912 26004KT 6SM BR OVC035
     FM181600 VRB04KT P6SM OVC030
     FM190000 13006KT P6SM SCT025 BKN250
     FM191000 18006KT P6SM OVC100=

USA.gov is the U.S. government's official web portal to all federal, state and local government web resources and services.